sensor_id;sensor_type;location;lat;lon;timestamp;temperature;humidity
24224;DHT22;12359;49.716;9.212;2024-02-26T00:02:23;6.60;1.00
24224;DHT22;12359;49.716;9.212;2024-02-26T00:04:49;6.70;17.90
24224;DHT22;12359;49.716;9.212;2024-02-26T00:07:15;6.70;15.00
24224;DHT22;12359;49.716;9.212;2024-02-26T00:09:41;6.70;1.00
24224;DHT22;12359;49.716;9.212;2024-02-26T00:12:07;6.80;1.00
24224;DHT22;12359;49.716;9.212;2024-02-26T00:14:33;6.80;1.00
24224;DHT22;12359;49.716;9.212;2024-02-26T00:16:59;6.80;1.00
24224;DHT22;12359;49.716;9.212;2024-02-26T00:19:25;6.80;1.00
24224;DHT22;12359;49.716;9.212;2024-02-26T00:21:50;6.80;1.00
24224;DHT22;12359;49.716;9.212;2024-02-26T00:24:16;6.80;1.00
24224;DHT22;12359;49.716;9.212;2024-02-26T00:26:42;6.80;1.00
24224;DHT22;12359;49.716;9.212;2024-02-26T00:29:07;6.80;1.00
24224;DHT22;12359;49.716;9.212;2024-02-26T00:31:33;6.80;1.00
24224;DHT22;12359;49.716;9.212;2024-02-26T00:33:59;6.80;1.00
24224;DHT22;12359;49.716;9.212;2024-02-26T00:36:24;6.80;99.90
24224;DHT22;12359;49.716;9.212;2024-02-26T00:38:50;6.80;99.90
24224;DHT22;12359;49.716;9.212;2024-02-26T00:41:20;6.80;91.90
24224;DHT22;12359;49.716;9.212;2024-02-26T00:43:46;6.90;15.50
24224;DHT22;12359;49.716;9.212;2024-02-26T00:46:12;6.80;1.00
24224;DHT22;12359;49.716;9.212;2024-02-26T00:48:38;6.80;1.00
24224;DHT22;12359;49.716;9.212;2024-02-26T00:51:04;6.80;1.00
24224;DHT22;12359;49.716;9.212;2024-02-26T00:53:31;6.80;1.00
24224;DHT22;12359;49.716;9.212;2024-02-26T00:55:57;6.80;33.30
24224;DHT22;12359;49.716;9.212;2024-02-26T00:58:27;6.80;10.60
24224;DHT22;12359;49.716;9.212;2024-02-26T01:00:53;6.80;1.00
24224;DHT22;12359;49.716;9.212;2024-02-26T01:03:19;6.80;1.00
24224;DHT22;12359;49.716;9.212;2024-02-26T01:05:45;6.80;56.00
24224;DHT22;12359;49.716;9.212;2024-02-26T01:08:11;6.80;95.90
24224;DHT22;12359;49.716;9.212;2024-02-26T01:10:36;6.80;99.90
24224;DHT22;12359;49.716;9.212;2024-02-26T01:13:02;6.80;99.90
24224;DHT22;12359;49.716;9.212;2024-02-26T01:15:28;6.80;31.70
24224;DHT22;12359;49.716;9.212;2024-02-26T01:17:54;6.80;47.90
24224;DHT22;12359;49.716;9.212;2024-02-26T01:20:19;6.90;8.30
24224;DHT22;12359;49.716;9.212;2024-02-26T01:22:45;6.90;63.40
24224;DHT22;12359;49.716;9.212;2024-02-26T01:25:12;6.90;3.50
24224;DHT22;12359;49.716;9.212;2024-02-26T01:27:38;6.90;1.00
24224;DHT22;12359;49.716;9.212;2024-02-26T01:30:05;6.80;58.10
24224;DHT22;12359;49.716;9.212;2024-02-26T01:32:31;6.80;99.90
24224;DHT22;12359;49.716;9.212;2024-02-26T01:34:56;6.80;99.90
24224;DHT22;12359;49.716;9.212;2024-02-26T01:37:22;6.80;99.90
24224;DHT22;12359;49.716;9.212;2024-02-26T01:39:48;6.80;99.90
24224;DHT22;12359;49.716;9.212;2024-02-26T01:42:14;6.80;99.90
24224;DHT22;12359;49.716;9.212;2024-02-26T01:44:39;6.80;99.90
24224;DHT22;12359;49.716;9.212;2024-02-26T01:47:07;6.80;99.90
24224;DHT22;12359;49.716;9.212;2024-02-26T01:49:34;6.70;99.90
24224;DHT22;12359;49.716;9.212;2024-02-26T01:52:01;6.70;99.90
24224;DHT22;12359;49.716;9.212;2024-02-26T01:54:29;6.70;99.90
24224;DHT22;12359;49.716;9.212;2024-02-26T01:56:55;6.70;99.90
24224;DHT22;12359;49.716;9.212;2024-02-26T01:59:22;6.70;99.90
24224;DHT22;12359;49.716;9.212;2024-02-26T02:01:50;6.70;99.90
24224;DHT22;12359;49.716;9.212;2024-02-26T02:04:18;6.70;99.90
24224;DHT22;12359;49.716;9.212;2024-02-26T02:06:45;6.70;99.90
24224;DHT22;12359;49.716;9.212;2024-02-26T02:09:11;6.60;99.90
24224;DHT22;12359;49.716;9.212;2024-02-26T02:11:38;6.60;99.90
24224;DHT22;12359;49.716;9.212;2024-02-26T02:14:03;6.60;99.90
24224;DHT22;12359;49.716;9.212;2024-02-26T02:16:29;6.60;99.90
24224;DHT22;12359;49.716;9.212;2024-02-26T02:18:55;6.60;1.00
24224;DHT22;12359;49.716;9.212;2024-02-26T02:21:21;6.50;1.00
24224;DHT22;12359;49.716;9.212;2024-02-26T02:23:46;6.50;1.00
24224;DHT22;12359;49.716;9.212;2024-02-26T02:26:14;6.60;99.90
24224;DHT22;12359;49.716;9.212;2024-02-26T02:28:40;6.60;99.90
24224;DHT22;12359;49.716;9.212;2024-02-26T02:31:06;6.60;99.90
24224;DHT22;12359;49.716;9.212;2024-02-26T02:33:36;6.60;99.90
24224;DHT22;12359;49.716;9.212;2024-02-26T02:36:01;6.60;99.90
24224;DHT22;12359;49.716;9.212;2024-02-26T02:38:27;6.60;99.90
24224;DHT22;12359;49.716;9.212;2024-02-26T02:40:55;6.60;99.90
24224;DHT22;12359;49.716;9.212;2024-02-26T02:43:21;6.60;99.90
24224;DHT22;12359;49.716;9.212;2024-02-26T02:45:46;6.60;99.90
24224;DHT22;12359;49.716;9.212;2024-02-26T02:48:12;6.60;99.90
24224;DHT22;12359;49.716;9.212;2024-02-26T02:50:38;6.60;99.90
24224;DHT22;12359;49.716;9.212;2024-02-26T02:53:04;6.60;99.90
24224;DHT22;12359;49.716;9.212;2024-02-26T02:55:29;6.50;1.00
24224;DHT22;12359;49.716;9.212;2024-02-26T02:57:55;6.50;1.00
24224;DHT22;12359;49.716;9.212;2024-02-26T03:00:21;6.40;1.00
24224;DHT22;12359;49.716;9.212;2024-02-26T03:02:50;6.40;1.00
24224;DHT22;12359;49.716;9.212;2024-02-26T03:05:15;6.40;1.00
24224;DHT22;12359;49.716;9.212;2024-02-26T03:07:41;6.40;9.00
24224;DHT22;12359;49.716;9.212;2024-02-26T03:10:07;6.40;1.00
24224;DHT22;12359;49.716;9.212;2024-02-26T03:12:33;6.40;1.00
24224;DHT22;12359;49.716;9.212;2024-02-26T03:14:59;6.40;1.00
24224;DHT22;12359;49.716;9.212;2024-02-26T03:17:28;6.40;1.00
24224;DHT22;12359;49.716;9.212;2024-02-26T03:19:54;6.40;1.10
24224;DHT22;12359;49.716;9.212;2024-02-26T03:22:20;6.40;44.30
24224;DHT22;12359;49.716;9.212;2024-02-26T03:24:46;6.30;99.90
24224;DHT22;12359;49.716;9.212;2024-02-26T03:27:12;6.30;76.50
24224;DHT22;12359;49.716;9.212;2024-02-26T03:29:38;6.30;25.40
24224;DHT22;12359;49.716;9.212;2024-02-26T03:32:04;6.30;95.00
24224;DHT22;12359;49.716;9.212;2024-02-26T03:34:31;6.30;80.40
24224;DHT22;12359;49.716;9.212;2024-02-26T03:37:00;6.30;41.70
24224;DHT22;12359;49.716;9.212;2024-02-26T03:39:26;6.30;62.20
24224;DHT22;12359;49.716;9.212;2024-02-26T03:41:51;6.30;78.00
24224;DHT22;12359;49.716;9.212;2024-02-26T03:44:17;6.30;99.90
24224;DHT22;12359;49.716;9.212;2024-02-26T03:46:43;6.30;99.90
24224;DHT22;12359;49.716;9.212;2024-02-26T03:49:09;6.30;99.90
24224;DHT22;12359;49.716;9.212;2024-02-26T03:51:35;6.20;99.90
24224;DHT22;12359;49.716;9.212;2024-02-26T03:54:01;6.20;99.90
24224;DHT22;12359;49.716;9.212;2024-02-26T03:56:27;6.20;99.90
24224;DHT22;12359;49.716;9.212;2024-02-26T03:58:53;6.20;99.90
24224;DHT22;12359;49.716;9.212;2024-02-26T04:01:19;6.20;99.90
24224;DHT22;12359;49.716;9.212;2024-02-26T04:03:45;6.20;99.90
24224;DHT22;12359;49.716;9.212;2024-02-26T04:06:11;6.20;74.80
24224;DHT22;12359;49.716;9.212;2024-02-26T04:08:37;6.20;26.70
24224;DHT22;12359;49.716;9.212;2024-02-26T04:11:03;6.20;99.90
24224;DHT22;12359;49.716;9.212;2024-02-26T04:13:33;6.20;99.90
24224;DHT22;12359;49.716;9.212;2024-02-26T04:16:00;6.20;99.90
24224;DHT22;12359;49.716;9.212;2024-02-26T04:18:27;6.20;99.90
24224;DHT22;12359;49.716;9.212;2024-02-26T04:20:53;6.10;99.90
24224;DHT22;12359;49.716;9.212;2024-02-26T04:23:19;6.10;99.90
24224;DHT22;12359;49.716;9.212;2024-02-26T04:25:45;6.20;99.90
24224;DHT22;12359;49.716;9.212;2024-02-26T04:28:11;6.10;99.90
24224;DHT22;12359;49.716;9.212;2024-02-26T04:30:37;6.10;99.90
24224;DHT22;12359;49.716;9.212;2024-02-26T04:33:03;6.10;99.90
24224;DHT22;12359;49.716;9.212;2024-02-26T04:35:29;6.00;99.90
24224;DHT22;12359;49.716;9.212;2024-02-26T04:37:55;5.90;99.90
24224;DHT22;12359;49.716;9.212;2024-02-26T04:40:21;6.00;99.90
24224;DHT22;12359;49.716;9.212;2024-02-26T04:42:47;5.90;1.00
24224;DHT22;12359;49.716;9.212;2024-02-26T04:45:12;6.00;1.00
24224;DHT22;12359;49.716;9.212;2024-02-26T04:47:38;6.00;1.00
24224;DHT22;12359;49.716;9.212;2024-02-26T04:50:04;6.00;99.90
24224;DHT22;12359;49.716;9.212;2024-02-26T04:52:30;6.00;99.90
24224;DHT22;12359;49.716;9.212;2024-02-26T04:54:55;6.00;99.90
24224;DHT22;12359;49.716;9.212;2024-02-26T04:57:22;6.10;99.90
24224;DHT22;12359;49.716;9.212;2024-02-26T04:59:47;6.10;99.90
24224;DHT22;12359;49.716;9.212;2024-02-26T05:02:13;6.10;99.90
24224;DHT22;12359;49.716;9.212;2024-02-26T05:04:39;6.10;99.90
24224;DHT22;12359;49.716;9.212;2024-02-26T05:07:05;6.10;99.90
24224;DHT22;12359;49.716;9.212;2024-02-26T05:09:31;6.00;1.00
24224;DHT22;12359;49.716;9.212;2024-02-26T05:11:57;6.00;1.00
24224;DHT22;12359;49.716;9.212;2024-02-26T05:14:23;5.90;1.00
24224;DHT22;12359;49.716;9.212;2024-02-26T05:16:49;5.80;1.00
24224;DHT22;12359;49.716;9.212;2024-02-26T05:19:14;5.80;1.00
24224;DHT22;12359;49.716;9.212;2024-02-26T05:21:40;5.80;1.00
24224;DHT22;12359;49.716;9.212;2024-02-26T05:24:08;5.80;1.00
24224;DHT22;12359;49.716;9.212;2024-02-26T05:26:33;5.80;1.00
24224;DHT22;12359;49.716;9.212;2024-02-26T05:28:59;5.80;1.00
24224;DHT22;12359;49.716;9.212;2024-02-26T05:31:26;5.80;1.00
24224;DHT22;12359;49.716;9.212;2024-02-26T05:33:52;5.90;1.00
24224;DHT22;12359;49.716;9.212;2024-02-26T05:36:21;5.90;99.90
24224;DHT22;12359;49.716;9.212;2024-02-26T05:38:48;5.90;99.90
24224;DHT22;12359;49.716;9.212;2024-02-26T05:41:17;5.90;99.90
24224;DHT22;12359;49.716;9.212;2024-02-26T05:43:51;5.90;99.90
24224;DHT22;12359;49.716;9.212;2024-02-26T05:46:18;5.90;99.90
24224;DHT22;12359;49.716;9.212;2024-02-26T05:48:46;5.90;99.90
24224;DHT22;12359;49.716;9.212;2024-02-26T05:51:12;6.00;99.90
24224;DHT22;12359;49.716;9.212;2024-02-26T05:53:38;6.00;99.90
24224;DHT22;12359;49.716;9.212;2024-02-26T05:56:03;5.90;99.90
24224;DHT22;12359;49.716;9.212;2024-02-26T05:58:29;5.90;99.90
24224;DHT22;12359;49.716;9.212;2024-02-26T06:00:55;5.90;99.90
24224;DHT22;12359;49.716;9.212;2024-02-26T06:03:20;5.90;99.90
24224;DHT22;12359;49.716;9.212;2024-02-26T06:05:46;5.80;99.90
24224;DHT22;12359;49.716;9.212;2024-02-26T06:08:12;5.80;99.90
24224;DHT22;12359;49.716;9.212;2024-02-26T06:10:37;5.90;99.90
24224;DHT22;12359;49.716;9.212;2024-02-26T06:13:04;5.80;99.90
24224;DHT22;12359;49.716;9.212;2024-02-26T06:15:30;5.80;99.90
24224;DHT22;12359;49.716;9.212;2024-02-26T06:17:56;5.80;99.90
24224;DHT22;12359;49.716;9.212;2024-02-26T06:20:21;5.80;99.90
24224;DHT22;12359;49.716;9.212;2024-02-26T06:22:47;5.80;99.90
24224;DHT22;12359;49.716;9.212;2024-02-26T06:25:12;5.80;99.90
24224;DHT22;12359;49.716;9.212;2024-02-26T06:27:38;5.80;1.00
24224;DHT22;12359;49.716;9.212;2024-02-26T06:30:04;5.70;1.00
24224;DHT22;12359;49.716;9.212;2024-02-26T06:32:30;5.70;1.00
24224;DHT22;12359;49.716;9.212;2024-02-26T06:34:56;5.70;1.00
24224;DHT22;12359;49.716;9.212;2024-02-26T06:37:22;5.70;1.00
24224;DHT22;12359;49.716;9.212;2024-02-26T06:39:48;5.70;1.00
24224;DHT22;12359;49.716;9.212;2024-02-26T06:42:13;5.70;1.00
24224;DHT22;12359;49.716;9.212;2024-02-26T06:44:39;5.70;1.00
24224;DHT22;12359;49.716;9.212;2024-02-26T06:47:05;5.70;1.00
24224;DHT22;12359;49.716;9.212;2024-02-26T06:49:31;5.70;1.00
24224;DHT22;12359;49.716;9.212;2024-02-26T06:51:57;5.70;1.00
24224;DHT22;12359;49.716;9.212;2024-02-26T06:54:22;5.70;1.00
24224;DHT22;12359;49.716;9.212;2024-02-26T06:56:48;5.70;1.00
24224;DHT22;12359;49.716;9.212;2024-02-26T06:59:14;5.70;1.00
24224;DHT22;12359;49.716;9.212;2024-02-26T07:01:41;5.70;1.00
24224;DHT22;12359;49.716;9.212;2024-02-26T07:04:07;5.70;1.00
24224;DHT22;12359;49.716;9.212;2024-02-26T07:06:33;5.70;1.00
24224;DHT22;12359;49.716;9.212;2024-02-26T07:08:58;5.70;1.00
24224;DHT22;12359;49.716;9.212;2024-02-26T07:11:24;5.80;1.00
24224;DHT22;12359;49.716;9.212;2024-02-26T07:13:50;5.80;1.00
24224;DHT22;12359;49.716;9.212;2024-02-26T07:16:15;5.80;1.00
24224;DHT22;12359;49.716;9.212;2024-02-26T07:18:41;5.80;1.00
24224;DHT22;12359;49.716;9.212;2024-02-26T07:21:08;5.80;1.00
24224;DHT22;12359;49.716;9.212;2024-02-26T07:23:34;5.80;1.00
24224;DHT22;12359;49.716;9.212;2024-02-26T07:26:00;5.70;1.00
24224;DHT22;12359;49.716;9.212;2024-02-26T07:28:26;5.80;1.00
24224;DHT22;12359;49.716;9.212;2024-02-26T07:30:51;5.70;1.00
24224;DHT22;12359;49.716;9.212;2024-02-26T07:33:17;5.80;1.00
24224;DHT22;12359;49.716;9.212;2024-02-26T07:35:43;5.70;1.00
24224;DHT22;12359;49.716;9.212;2024-02-26T07:38:08;5.70;1.00
24224;DHT22;12359;49.716;9.212;2024-02-26T07:40:34;5.70;6.50
24224;DHT22;12359;49.716;9.212;2024-02-26T07:43:00;5.70;1.80
24224;DHT22;12359;49.716;9.212;2024-02-26T07:45:26;5.70;7.70
24224;DHT22;12359;49.716;9.212;2024-02-26T07:47:51;5.70;1.00
24224;DHT22;12359;49.716;9.212;2024-02-26T07:50:17;5.70;8.00
24224;DHT22;12359;49.716;9.212;2024-02-26T07:52:44;5.70;2.60
24224;DHT22;12359;49.716;9.212;2024-02-26T07:55:10;5.70;7.90
24224;DHT22;12359;49.716;9.212;2024-02-26T07:57:36;5.70;17.80
24224;DHT22;12359;49.716;9.212;2024-02-26T08:00:03;5.70;19.90
24224;DHT22;12359;49.716;9.212;2024-02-26T08:02:29;5.80;23.80
24224;DHT22;12359;49.716;9.212;2024-02-26T08:04:55;5.80;22.40
24224;DHT22;12359;49.716;9.212;2024-02-26T08:07:20;5.80;9.10
24224;DHT22;12359;49.716;9.212;2024-02-26T08:09:47;5.80;2.40
24224;DHT22;12359;49.716;9.212;2024-02-26T08:12:13;5.80;6.90
24224;DHT22;12359;49.716;9.212;2024-02-26T08:14:39;5.90;17.70
24224;DHT22;12359;49.716;9.212;2024-02-26T08:17:05;5.90;11.40
24224;DHT22;12359;49.716;9.212;2024-02-26T08:19:31;5.80;6.90
24224;DHT22;12359;49.716;9.212;2024-02-26T08:21:57;5.80;7.30
24224;DHT22;12359;49.716;9.212;2024-02-26T08:24:23;5.90;15.10
24224;DHT22;12359;49.716;9.212;2024-02-26T08:26:49;5.90;13.00
24224;DHT22;12359;49.716;9.212;2024-02-26T08:29:14;5.90;8.30
24224;DHT22;12359;49.716;9.212;2024-02-26T08:31:40;5.90;1.00
24224;DHT22;12359;49.716;9.212;2024-02-26T08:34:06;5.90;1.00
24224;DHT22;12359;49.716;9.212;2024-02-26T08:36:35;6.00;1.00
24224;DHT22;12359;49.716;9.212;2024-02-26T08:39:01;6.00;1.00
24224;DHT22;12359;49.716;9.212;2024-02-26T08:41:26;6.00;1.00
24224;DHT22;12359;49.716;9.212;2024-02-26T08:43:52;6.10;1.00
24224;DHT22;12359;49.716;9.212;2024-02-26T08:46:18;6.10;1.00
24224;DHT22;12359;49.716;9.212;2024-02-26T08:48:43;6.20;1.00
24224;DHT22;12359;49.716;9.212;2024-02-26T08:51:09;6.20;1.00
24224;DHT22;12359;49.716;9.212;2024-02-26T08:53:36;6.30;1.00
24224;DHT22;12359;49.716;9.212;2024-02-26T08:56:02;6.30;1.00
24224;DHT22;12359;49.716;9.212;2024-02-26T08:58:28;6.40;1.00
24224;DHT22;12359;49.716;9.212;2024-02-26T09:00:54;6.40;1.00
24224;DHT22;12359;49.716;9.212;2024-02-26T09:03:20;6.50;1.00
24224;DHT22;12359;49.716;9.212;2024-02-26T09:05:46;6.50;1.00
24224;DHT22;12359;49.716;9.212;2024-02-26T09:08:12;6.50;1.00
24224;DHT22;12359;49.716;9.212;2024-02-26T09:10:38;6.50;1.00
24224;DHT22;12359;49.716;9.212;2024-02-26T09:13:04;6.50;1.00
24224;DHT22;12359;49.716;9.212;2024-02-26T09:15:30;6.50;1.00
24224;DHT22;12359;49.716;9.212;2024-02-26T09:17:56;6.60;1.00
24224;DHT22;12359;49.716;9.212;2024-02-26T09:20:22;6.60;1.00
24224;DHT22;12359;49.716;9.212;2024-02-26T09:22:49;6.70;1.00
24224;DHT22;12359;49.716;9.212;2024-02-26T09:25:15;6.70;1.00
24224;DHT22;12359;49.716;9.212;2024-02-26T09:27:43;6.70;1.00
24224;DHT22;12359;49.716;9.212;2024-02-26T09:30:13;6.80;1.00
24224;DHT22;12359;49.716;9.212;2024-02-26T09:32:40;6.90;1.00
24224;DHT22;12359;49.716;9.212;2024-02-26T09:35:06;6.90;1.00
24224;DHT22;12359;49.716;9.212;2024-02-26T09:37:33;6.90;1.00
24224;DHT22;12359;49.716;9.212;2024-02-26T09:40:00;6.90;1.00
24224;DHT22;12359;49.716;9.212;2024-02-26T09:42:26;6.90;1.00
24224;DHT22;12359;49.716;9.212;2024-02-26T09:44:56;6.90;1.00
24224;DHT22;12359;49.716;9.212;2024-02-26T09:47:25;6.90;1.00
24224;DHT22;12359;49.716;9.212;2024-02-26T09:49:53;6.90;1.00
24224;DHT22;12359;49.716;9.212;2024-02-26T09:52:21;7.00;1.00
24224;DHT22;12359;49.716;9.212;2024-02-26T09:54:49;7.00;1.00
24224;DHT22;12359;49.716;9.212;2024-02-26T09:57:15;7.00;1.00
24224;DHT22;12359;49.716;9.212;2024-02-26T09:59:43;7.00;1.00
24224;DHT22;12359;49.716;9.212;2024-02-26T10:02:12;7.00;1.00
24224;DHT22;12359;49.716;9.212;2024-02-26T10:04:40;7.10;1.00
24224;DHT22;12359;49.716;9.212;2024-02-26T10:07:13;7.20;1.00
24224;DHT22;12359;49.716;9.212;2024-02-26T10:09:39;7.30;1.00
24224;DHT22;12359;49.716;9.212;2024-02-26T10:12:07;7.40;1.00
24224;DHT22;12359;49.716;9.212;2024-02-26T10:14:34;7.50;1.00
24224;DHT22;12359;49.716;9.212;2024-02-26T10:17:00;7.50;1.00
24224;DHT22;12359;49.716;9.212;2024-02-26T10:19:29;7.50;1.00
24224;DHT22;12359;49.716;9.212;2024-02-26T10:21:59;7.60;1.00
24224;DHT22;12359;49.716;9.212;2024-02-26T10:24:27;7.60;1.00
24224;DHT22;12359;49.716;9.212;2024-02-26T10:26:54;7.60;1.00
24224;DHT22;12359;49.716;9.212;2024-02-26T10:29:21;7.60;1.00
24224;DHT22;12359;49.716;9.212;2024-02-26T10:31:47;7.60;1.00
24224;DHT22;12359;49.716;9.212;2024-02-26T10:34:14;7.70;1.00
24224;DHT22;12359;49.716;9.212;2024-02-26T10:36:40;8.00;1.00
24224;DHT22;12359;49.716;9.212;2024-02-26T10:39:07;8.10;99.90
24224;DHT22;12359;49.716;9.212;2024-02-26T10:41:35;8.20;99.90
24224;DHT22;12359;49.716;9.212;2024-02-26T10:44:01;8.40;99.90
24224;DHT22;12359;49.716;9.212;2024-02-26T10:46:27;8.40;99.90
24224;DHT22;12359;49.716;9.212;2024-02-26T10:48:54;8.50;99.90
24224;DHT22;12359;49.716;9.212;2024-02-26T10:51:30;8.60;99.90
24224;DHT22;12359;49.716;9.212;2024-02-26T10:53:58;8.80;99.90
24224;DHT22;12359;49.716;9.212;2024-02-26T10:56:28;9.00;99.90
24224;DHT22;12359;49.716;9.212;2024-02-26T10:58:58;9.40;93.30
24224;DHT22;12359;49.716;9.212;2024-02-26T11:01:24;9.40;1.00
24224;DHT22;12359;49.716;9.212;2024-02-26T11:03:55;9.40;99.90
24224;DHT22;12359;49.716;9.212;2024-02-26T11:06:22;9.30;99.90
24224;DHT22;12359;49.716;9.212;2024-02-26T11:08:49;9.70;99.90
24224;DHT22;12359;49.716;9.212;2024-02-26T11:11:16;10.20;99.90
24224;DHT22;12359;49.716;9.212;2024-02-26T11:13:45;10.60;99.90
24224;DHT22;12359;49.716;9.212;2024-02-26T11:16:16;11.00;1.00
24224;DHT22;12359;49.716;9.212;2024-02-26T11:18:43;11.50;1.00
24224;DHT22;12359;49.716;9.212;2024-02-26T11:21:15;11.10;99.90
24224;DHT22;12359;49.716;9.212;2024-02-26T11:23:41;11.00;1.00
24224;DHT22;12359;49.716;9.212;2024-02-26T11:26:09;10.80;99.90
24224;DHT22;12359;49.716;9.212;2024-02-26T11:28:37;10.70;75.30
24224;DHT22;12359;49.716;9.212;2024-02-26T11:31:03;10.40;99.90
24224;DHT22;12359;49.716;9.212;2024-02-26T11:33:30;10.40;1.00
24224;DHT22;12359;49.716;9.212;2024-02-26T11:35:56;10.40;99.90
24224;DHT22;12359;49.716;9.212;2024-02-26T11:38:24;10.40;99.90
24224;DHT22;12359;49.716;9.212;2024-02-26T11:40:53;10.60;99.90
24224;DHT22;12359;49.716;9.212;2024-02-26T11:43:23;11.20;1.00
24224;DHT22;12359;49.716;9.212;2024-02-26T11:45:50;11.70;99.90
24224;DHT22;12359;49.716;9.212;2024-02-26T11:48:21;12.10;99.90
24224;DHT22;12359;49.716;9.212;2024-02-26T11:50:53;12.80;99.90
24224;DHT22;12359;49.716;9.212;2024-02-26T11:53:21;13.30;1.00
24224;DHT22;12359;49.716;9.212;2024-02-26T11:55:47;13.80;74.80
24224;DHT22;12359;49.716;9.212;2024-02-26T11:58:14;13.70;99.90
24224;DHT22;12359;49.716;9.212;2024-02-26T12:00:42;12.70;99.60
24224;DHT22;12359;49.716;9.212;2024-02-26T12:03:08;12.60;99.90
24224;DHT22;12359;49.716;9.212;2024-02-26T12:05:36;13.10;1.00
24224;DHT22;12359;49.716;9.212;2024-02-26T12:08:08;13.30;1.00
24224;DHT22;12359;49.716;9.212;2024-02-26T12:10:39;13.60;99.90
24224;DHT22;12359;49.716;9.212;2024-02-26T12:13:10;13.20;99.90
24224;DHT22;12359;49.716;9.212;2024-02-26T12:15:39;12.90;99.90
24224;DHT22;12359;49.716;9.212;2024-02-26T12:18:07;12.90;1.00
24224;DHT22;12359;49.716;9.212;2024-02-26T12:20:33;12.80;1.00
24224;DHT22;12359;49.716;9.212;2024-02-26T12:23:02;12.70;1.00
24224;DHT22;12359;49.716;9.212;2024-02-26T12:25:29;13.20;99.90
24224;DHT22;12359;49.716;9.212;2024-02-26T12:27:56;13.20;99.90
24224;DHT22;12359;49.716;9.212;2024-02-26T12:30:23;12.90;99.90
24224;DHT22;12359;49.716;9.212;2024-02-26T12:32:49;13.00;1.00
24224;DHT22;12359;49.716;9.212;2024-02-26T12:35:16;13.00;99.90
24224;DHT22;12359;49.716;9.212;2024-02-26T12:37:45;12.90;99.90
24224;DHT22;12359;49.716;9.212;2024-02-26T12:40:12;12.50;1.00
24224;DHT22;12359;49.716;9.212;2024-02-26T12:42:41;12.20;99.90
24224;DHT22;12359;49.716;9.212;2024-02-26T12:45:09;12.10;1.00
24224;DHT22;12359;49.716;9.212;2024-02-26T12:47:45;12.00;13.30
24224;DHT22;12359;49.716;9.212;2024-02-26T12:50:12;12.10;1.00
24224;DHT22;12359;49.716;9.212;2024-02-26T12:52:44;12.20;1.00
24224;DHT22;12359;49.716;9.212;2024-02-26T12:55:12;12.30;99.90
24224;DHT22;12359;49.716;9.212;2024-02-26T12:57:40;12.30;99.90
24224;DHT22;12359;49.716;9.212;2024-02-26T13:00:12;12.20;99.90
24224;DHT22;12359;49.716;9.212;2024-02-26T13:02:40;12.10;1.00
24224;DHT22;12359;49.716;9.212;2024-02-26T13:05:08;11.80;99.90
24224;DHT22;12359;49.716;9.212;2024-02-26T13:07:43;11.70;1.00
24224;DHT22;12359;49.716;9.212;2024-02-26T13:10:09;11.50;1.00
24224;DHT22;12359;49.716;9.212;2024-02-26T13:12:41;11.50;7.60
24224;DHT22;12359;49.716;9.212;2024-02-26T13:15:14;11.30;99.90
24224;DHT22;12359;49.716;9.212;2024-02-26T13:17:40;11.20;90.40
24224;DHT22;12359;49.716;9.212;2024-02-26T13:20:08;11.20;1.00
24224;DHT22;12359;49.716;9.212;2024-02-26T13:22:36;11.20;99.90
24224;DHT22;12359;49.716;9.212;2024-02-26T13:25:01;11.20;1.00
24224;DHT22;12359;49.716;9.212;2024-02-26T13:27:30;11.10;99.90
24224;DHT22;12359;49.716;9.212;2024-02-26T13:32:32;11.50;38.20
24224;DHT22;12359;49.716;9.212;2024-02-26T13:35:12;11.50;99.90
24224;DHT22;12359;49.716;9.212;2024-02-26T13:37:39;11.40;99.90
24224;DHT22;12359;49.716;9.212;2024-02-26T13:40:06;11.60;99.90
24224;DHT22;12359;49.716;9.212;2024-02-26T13:42:32;11.70;99.90
24224;DHT22;12359;49.716;9.212;2024-02-26T13:44:58;11.80;1.00
24224;DHT22;12359;49.716;9.212;2024-02-26T13:47:24;11.80;99.90
24224;DHT22;12359;49.716;9.212;2024-02-26T13:49:50;11.70;99.90
24224;DHT22;12359;49.716;9.212;2024-02-26T13:52:15;11.70;99.90
24224;DHT22;12359;49.716;9.212;2024-02-26T13:54:41;11.70;1.00
24224;DHT22;12359;49.716;9.212;2024-02-26T13:57:07;11.90;99.90
24224;DHT22;12359;49.716;9.212;2024-02-26T13:59:34;11.80;99.90
24224;DHT22;12359;49.716;9.212;2024-02-26T14:01:59;11.90;99.90
24224;DHT22;12359;49.716;9.212;2024-02-26T14:04:25;11.90;1.00
24224;DHT22;12359;49.716;9.212;2024-02-26T14:06:51;11.70;1.00
24224;DHT22;12359;49.716;9.212;2024-02-26T14:09:16;11.60;99.90
24224;DHT22;12359;49.716;9.212;2024-02-26T14:11:48;11.50;1.00
24224;DHT22;12359;49.716;9.212;2024-02-26T14:14:13;11.60;1.00
24224;DHT22;12359;49.716;9.212;2024-02-26T14:16:39;11.60;99.90
24224;DHT22;12359;49.716;9.212;2024-02-26T14:19:05;11.50;99.90
24224;DHT22;12359;49.716;9.212;2024-02-26T14:21:30;11.60;1.00
24224;DHT22;12359;49.716;9.212;2024-02-26T14:23:56;11.50;99.90
24224;DHT22;12359;49.716;9.212;2024-02-26T14:26:23;11.60;89.40
24224;DHT22;12359;49.716;9.212;2024-02-26T14:28:49;11.80;3.60
24224;DHT22;12359;49.716;9.212;2024-02-26T14:31:17;11.80;27.80
24224;DHT22;12359;49.716;9.212;2024-02-26T14:33:43;11.80;99.90
24224;DHT22;12359;49.716;9.212;2024-02-26T14:36:09;11.70;89.00
24224;DHT22;12359;49.716;9.212;2024-02-26T14:38:36;11.70;1.00
24224;DHT22;12359;49.716;9.212;2024-02-26T14:41:02;11.80;1.00
24224;DHT22;12359;49.716;9.212;2024-02-26T14:43:28;11.70;1.00
24224;DHT22;12359;49.716;9.212;2024-02-26T14:45:54;11.70;59.20
24224;DHT22;12359;49.716;9.212;2024-02-26T14:48:19;11.70;1.00
24224;DHT22;12359;49.716;9.212;2024-02-26T14:50:45;11.80;99.90
24224;DHT22;12359;49.716;9.212;2024-02-26T14:53:11;11.60;1.00
24224;DHT22;12359;49.716;9.212;2024-02-26T14:55:36;11.60;99.90
24224;DHT22;12359;49.716;9.212;2024-02-26T14:58:02;11.60;99.90
24224;DHT22;12359;49.716;9.212;2024-02-26T15:00:28;11.60;99.90
24224;DHT22;12359;49.716;9.212;2024-02-26T15:02:54;11.60;1.00
24224;DHT22;12359;49.716;9.212;2024-02-26T15:05:20;11.60;97.60
24224;DHT22;12359;49.716;9.212;2024-02-26T15:07:46;11.70;99.90
24224;DHT22;12359;49.716;9.212;2024-02-26T15:10:12;11.80;99.90
24224;DHT22;12359;49.716;9.212;2024-02-26T15:12:38;11.80;99.90
24224;DHT22;12359;49.716;9.212;2024-02-26T15:15:04;11.90;99.90
24224;DHT22;12359;49.716;9.212;2024-02-26T15:17:29;11.80;99.90
24224;DHT22;12359;49.716;9.212;2024-02-26T15:19:57;11.80;1.00
24224;DHT22;12359;49.716;9.212;2024-02-26T15:22:24;11.80;99.90
24224;DHT22;12359;49.716;9.212;2024-02-26T15:24:50;11.80;1.00
24224;DHT22;12359;49.716;9.212;2024-02-26T15:27:16;11.90;1.00
24224;DHT22;12359;49.716;9.212;2024-02-26T15:29:42;11.90;99.90
24224;DHT22;12359;49.716;9.212;2024-02-26T15:32:08;11.90;99.90
24224;DHT22;12359;49.716;9.212;2024-02-26T15:34:34;11.80;99.90
24224;DHT22;12359;49.716;9.212;2024-02-26T15:36:59;11.80;99.90
24224;DHT22;12359;49.716;9.212;2024-02-26T15:39:25;11.80;99.90
24224;DHT22;12359;49.716;9.212;2024-02-26T15:41:51;11.80;99.90
24224;DHT22;12359;49.716;9.212;2024-02-26T15:44:17;11.70;1.00
24224;DHT22;12359;49.716;9.212;2024-02-26T15:46:43;11.70;1.00
24224;DHT22;12359;49.716;9.212;2024-02-26T15:49:09;11.60;1.00